createdAt,value
2017-04-29T00:00:30.193Z,24.10
2017-04-29T00:01:33.067Z,24.08
2017-04-29T00:02:35.396Z,24.10
2017-04-29T00:03:37.719Z,24.02
2017-04-29T00:04:40.248Z,23.99
2017-04-29T00:05:42.590Z,24.05
2017-04-29T00:06:45.453Z,23.99
2017-04-29T00:07:47.821Z,23.96
2017-04-29T00:08:50.114Z,23.95
2017-04-29T00:09:52.426Z,23.99
2017-04-29T00:10:54.759Z,23.96
2017-04-29T00:11:57.691Z,23.92
2017-04-29T00:13:00.021Z,23.96
2017-04-29T00:14:02.358Z,23.93
2017-04-29T00:15:04.671Z,23.93
2017-04-29T00:16:06.995Z,23.93
2017-04-29T00:17:09.859Z,23.87
2017-04-29T00:18:12.182Z,23.88
2017-04-29T00:19:14.498Z,23.88
2017-04-29T00:20:16.818Z,23.83
2017-04-29T00:21:19.148Z,23.81
2017-04-29T00:22:22.063Z,23.92
2017-04-29T00:23:24.391Z,23.93
2017-04-29T00:24:26.711Z,23.84
2017-04-29T00:25:29.036Z,23.84
2017-04-29T00:26:31.362Z,23.80
2017-04-29T00:27:34.230Z,23.69
2017-04-29T00:28:36.553Z,23.71
2017-04-29T00:29:38.882Z,23.80
2017-04-29T00:30:41.205Z,23.78
2017-04-29T00:31:43.531Z,23.84
2017-04-29T00:32:46.400Z,23.76
2017-04-29T00:33:48.735Z,23.80
2017-04-29T00:34:51.059Z,23.68
2017-04-29T00:35:53.391Z,23.73
2017-04-29T00:36:55.712Z,23.76
2017-04-29T00:37:58.629Z,23.71
2017-04-29T00:39:00.958Z,23.73
2017-04-29T00:40:03.280Z,23.69
2017-04-29T00:41:05.604Z,23.69
2017-04-29T00:42:07.925Z,23.74
2017-04-29T00:43:10.858Z,23.73
2017-04-29T00:44:13.173Z,23.68
2017-04-29T00:45:15.494Z,23.78
2017-04-29T00:46:17.818Z,23.83
2017-04-29T00:47:20.154Z,23.83
2017-04-29T00:48:23.068Z,23.77
2017-04-29T00:49:25.388Z,23.78
2017-04-29T00:50:27.707Z,23.78
2017-04-29T00:51:30.028Z,23.84
2017-04-29T00:52:32.358Z,23.71
2017-04-29T00:53:35.274Z,23.74
2017-04-29T00:54:37.606Z,23.69
2017-04-29T00:55:39.922Z,23.76
2017-04-29T00:56:42.262Z,23.71
2017-04-29T00:57:44.591Z,23.73
2017-04-29T00:58:47.531Z,23.66
2017-04-29T00:59:49.837Z,23.73
2017-04-29T01:00:52.155Z,23.76
2017-04-29T01:01:54.476Z,23.78
2017-04-29T01:02:56.795Z,23.78
2017-04-29T01:03:59.713Z,23.84
2017-04-29T01:05:02.038Z,23.76
2017-04-29T01:06:04.367Z,23.66
2017-04-29T01:07:06.692Z,23.71
2017-04-29T01:08:09.014Z,23.66
2017-04-29T01:09:11.942Z,23.69
2017-04-29T01:10:14.265Z,23.62
2017-04-29T01:11:16.582Z,23.59
2017-04-29T01:12:18.902Z,23.61
2017-04-29T01:13:21.222Z,23.58
2017-04-29T01:14:24.146Z,23.59
2017-04-29T01:15:26.463Z,23.59
2017-04-29T01:16:28.784Z,23.59
2017-04-29T01:17:31.111Z,23.55
2017-04-29T01:18:33.634Z,23.76
2017-04-29T01:19:36.554Z,23.62
2017-04-29T01:20:38.883Z,23.62
2017-04-29T01:21:41.207Z,23.54
2017-04-29T01:22:43.531Z,23.62
2017-04-29T01:23:45.843Z,23.62
2017-04-29T01:24:48.769Z,23.63
2017-04-29T01:25:51.089Z,23.61
2017-04-29T01:26:53.420Z,23.74
2017-04-29T01:27:55.742Z,23.61
2017-04-29T01:28:58.065Z,23.69
2017-04-29T01:30:00.992Z,23.76
2017-04-29T01:31:03.317Z,23.71
2017-04-29T01:32:05.638Z,23.66
2017-04-29T01:33:07.967Z,23.69
2017-04-29T01:34:10.297Z,23.62
2017-04-29T01:35:13.209Z,23.69
2017-04-29T01:36:15.527Z,23.56
2017-04-29T01:37:17.850Z,23.61
2017-04-29T01:38:20.174Z,23.55
2017-04-29T01:39:22.490Z,23.54
2017-04-29T01:40:25.417Z,23.54
2017-04-29T01:41:27.743Z,23.65
2017-04-29T01:42:30.062Z,23.66
2017-04-29T01:43:32.389Z,23.61
2017-04-29T01:44:34.711Z,23.54
2017-04-29T01:45:37.627Z,23.58
2017-04-29T01:46:39.967Z,23.62
2017-04-29T01:47:42.289Z,23.61
2017-04-29T01:48:44.600Z,23.74
2017-04-29T01:49:46.915Z,23.62
2017-04-29T01:50:49.856Z,23.58
2017-04-29T01:51:52.178Z,23.66
2017-04-29T01:52:54.513Z,23.73
2017-04-29T01:53:56.834Z,23.58
2017-04-29T01:54:59.146Z,23.69
2017-04-29T01:56:02.078Z,23.54
2017-04-29T01:57:04.408Z,23.59
2017-04-29T01:58:06.734Z,23.71
2017-04-29T01:59:09.066Z,23.69
2017-04-29T02:00:11.386Z,23.69
2017-04-29T02:01:14.317Z,23.66
2017-04-29T02:02:16.645Z,23.71
2017-04-29T02:03:18.954Z,23.56
2017-04-29T02:04:21.485Z,23.63
2017-04-29T02:05:23.807Z,23.62
2017-04-29T02:06:26.732Z,23.50
2017-04-29T02:07:29.050Z,23.55
2017-04-29T02:08:31.378Z,23.54
2017-04-29T02:09:33.703Z,23.58
2017-04-29T02:10:36.037Z,23.59
2017-04-29T02:11:38.905Z,23.55
2017-04-29T02:12:41.234Z,23.46
2017-04-29T02:13:43.543Z,23.46
2017-04-29T02:14:45.860Z,23.36
2017-04-29T02:15:48.190Z,23.40
2017-04-29T02:16:51.059Z,23.39
2017-04-29T02:17:53.388Z,23.28
2017-04-29T02:18:55.708Z,23.36
2017-04-29T02:19:58.028Z,23.31
2017-04-29T02:21:00.350Z,23.25
2017-04-29T02:22:03.285Z,23.28
2017-04-29T02:23:05.603Z,23.24
2017-04-29T02:24:07.932Z,23.24
2017-04-29T02:25:10.261Z,23.20
2017-04-29T02:26:12.591Z,23.23
2017-04-29T02:27:15.459Z,23.31
2017-04-29T02:28:17.784Z,23.23
2017-04-29T02:29:20.122Z,23.28
2017-04-29T02:30:22.444Z,23.39
2017-04-29T02:31:24.773Z,23.43
2017-04-29T02:32:27.691Z,23.41
2017-04-29T02:33:30.020Z,23.48
2017-04-29T02:34:32.343Z,23.44
2017-04-29T02:35:34.876Z,23.47
2017-04-29T02:36:37.199Z,23.48
2017-04-29T02:37:40.114Z,23.51
2017-04-29T02:38:42.438Z,23.48
2017-04-29T02:39:44.768Z,23.41
2017-04-29T02:40:47.089Z,23.50
2017-04-29T02:41:49.405Z,23.48
2017-04-29T02:42:52.294Z,23.46
2017-04-29T02:43:54.626Z,23.39
2017-04-29T02:44:56.945Z,23.34
2017-04-29T02:45:59.271Z,23.40
2017-04-29T02:47:01.588Z,23.32
2017-04-29T02:48:04.519Z,23.32
2017-04-29T02:49:06.843Z,23.32
2017-04-29T02:50:09.168Z,23.32
2017-04-29T02:51:11.498Z,23.32
2017-04-29T02:52:13.804Z,23.28
2017-04-29T02:53:16.732Z,23.32
2017-04-29T02:54:19.041Z,23.39
2017-04-29T02:55:21.368Z,23.48
2017-04-29T02:56:23.716Z,23.25
2017-04-29T02:57:26.033Z,23.32
2017-04-29T02:58:28.965Z,23.36
2017-04-29T02:59:31.287Z,23.28
2017-04-29T03:00:33.606Z,23.32
2017-04-29T03:01:35.926Z,23.27
2017-04-29T03:02:38.250Z,23.32
2017-04-29T03:03:41.188Z,23.37
2017-04-29T03:04:43.503Z,23.28
2017-04-29T03:05:45.823Z,23.39
2017-04-29T03:06:48.149Z,23.36
2017-04-29T03:07:50.467Z,23.39
2017-04-29T03:08:53.347Z,23.39
2017-04-29T03:09:55.668Z,23.39
2017-04-29T03:10:57.986Z,23.37
2017-04-29T03:12:00.313Z,23.37
2017-04-29T03:13:02.627Z,23.43
2017-04-29T03:14:05.558Z,23.40
2017-04-29T03:15:07.883Z,23.44
2017-04-29T03:16:10.208Z,23.47
2017-04-29T03:17:12.574Z,23.47
2017-04-29T03:18:14.940Z,23.46
2017-04-29T03:19:17.898Z,23.46
2017-04-29T03:20:20.251Z,23.39
2017-04-29T03:21:22.615Z,23.43
2017-04-29T03:22:24.981Z,23.43
2017-04-29T03:23:27.342Z,23.48
2017-04-29T03:24:30.296Z,23.48
2017-04-29T03:25:32.663Z,23.48
2017-04-29T03:26:35.027Z,23.43
2017-04-29T03:27:37.392Z,23.37
2017-04-29T03:29:42.215Z,23.37
2017-04-29T03:30:45.119Z,23.32
2017-04-29T03:31:47.442Z,23.43
2017-04-29T03:32:49.802Z,23.36
2017-04-29T03:33:52.165Z,23.39
2017-04-29T03:34:54.516Z,23.37
2017-04-29T03:35:59.376Z,23.39
2017-04-29T03:37:01.742Z,23.41
2017-04-29T03:38:04.099Z,23.32
2017-04-29T03:39:06.467Z,23.37
2017-04-29T03:40:08.829Z,23.39
2017-04-29T03:41:11.739Z,23.41
2017-04-29T03:42:14.104Z,23.40
2017-04-29T03:43:16.460Z,23.40
2017-04-29T03:46:29.051Z,23.37
2017-04-29T03:47:31.369Z,23.36
2017-04-29T03:48:33.692Z,23.41
2017-04-29T03:49:36.017Z,23.39
2017-04-29T03:50:38.332Z,23.44
2017-04-29T03:51:41.256Z,23.41
2017-04-29T03:52:43.575Z,23.43
2017-04-29T03:53:45.910Z,23.36
2017-04-29T03:54:48.219Z,23.43
2017-04-29T03:55:50.537Z,23.43
2017-04-29T03:56:53.464Z,23.43
2017-04-29T03:57:55.779Z,23.37
2017-04-29T03:58:58.111Z,23.41
2017-04-29T04:00:00.423Z,23.40
2017-04-29T04:01:02.946Z,23.40
2017-04-29T04:02:05.871Z,23.43
2017-04-29T04:03:08.186Z,23.40
2017-04-29T04:04:10.518Z,23.40
2017-04-29T04:05:12.840Z,23.41
2017-04-29T04:06:15.177Z,23.37
2017-04-29T04:07:18.094Z,23.34
2017-04-29T04:08:20.416Z,23.37
2017-04-29T04:09:22.745Z,23.32
2017-04-29T04:10:25.265Z,23.39
2017-04-29T04:11:27.581Z,23.32
2017-04-29T04:12:30.509Z,23.34
2017-04-29T04:13:33.026Z,23.23
2017-04-29T04:14:35.342Z,23.25
2017-04-29T04:15:37.667Z,23.36
2017-04-29T04:16:40.007Z,23.28
2017-04-29T04:17:42.916Z,23.34
2017-04-29T04:18:45.238Z,23.21
2017-04-29T04:19:47.569Z,23.27
2017-04-29T04:20:49.895Z,23.24
2017-04-29T04:21:52.222Z,23.27
2017-04-29T04:22:55.140Z,23.21
2017-04-29T04:23:57.449Z,23.25
2017-04-29T04:24:59.783Z,23.25
2017-04-29T04:26:02.104Z,23.27
2017-04-29T04:27:04.422Z,23.21
2017-04-29T04:28:07.298Z,23.34
2017-04-29T04:29:09.620Z,23.31
2017-04-29T04:30:11.943Z,23.25
2017-04-29T04:31:14.265Z,23.25
2017-04-29T04:32:16.578Z,23.28
2017-04-29T04:33:19.461Z,23.27
2017-04-29T04:34:21.774Z,23.17
2017-04-29T04:35:24.095Z,23.15
2017-04-29T04:36:26.415Z,23.17
2017-04-29T04:37:28.954Z,23.17
2017-04-29T04:38:31.884Z,23.23
2017-04-29T04:39:34.197Z,23.23
2017-04-29T04:40:36.531Z,23.25
2017-04-29T04:41:38.848Z,23.24
2017-04-29T04:42:41.172Z,23.28
2017-04-29T04:43:44.045Z,23.24
2017-04-29T04:44:46.375Z,23.21
2017-04-29T04:45:48.689Z,23.20
2017-04-29T04:46:51.009Z,23.21
2017-04-29T04:47:53.338Z,23.25
2017-04-29T04:48:56.264Z,23.23
2017-04-29T04:49:58.591Z,23.25
2017-04-29T04:51:01.108Z,23.24
2017-04-29T04:52:03.422Z,23.23
2017-04-29T04:53:05.756Z,23.18
2017-04-29T04:54:08.674Z,23.24
2017-04-29T04:55:10.992Z,23.20
2017-04-29T04:56:13.316Z,23.18
2017-04-29T04:57:15.637Z,23.15
2017-04-29T04:58:17.968Z,23.18
2017-04-29T04:59:20.891Z,23.20
2017-04-29T05:00:23.210Z,23.20
2017-04-29T05:01:25.538Z,23.24
2017-04-29T05:02:27.876Z,23.25
2017-04-29T05:03:30.191Z,23.25
2017-04-29T05:04:33.055Z,23.24
2017-04-29T05:05:35.373Z,23.27
2017-04-29T05:06:37.694Z,23.25
2017-04-29T05:07:40.020Z,23.25
2017-04-29T05:08:42.333Z,23.27
2017-04-29T05:09:45.255Z,23.25
2017-04-29T05:10:47.577Z,23.25
2017-04-29T05:11:49.895Z,23.24
2017-04-29T05:12:52.420Z,23.24
2017-04-29T05:13:54.743Z,23.17
2017-04-29T05:14:57.666Z,23.15
2017-04-29T05:15:59.992Z,23.18
2017-04-29T05:17:02.314Z,23.18
2017-04-29T05:18:04.640Z,23.20
2017-04-29T05:19:06.960Z,23.21
2017-04-29T05:20:09.888Z,23.09
2017-04-29T05:21:12.203Z,23.15
2017-04-29T05:22:14.535Z,23.12
2017-04-29T05:23:16.860Z,23.18
2017-04-29T05:24:19.181Z,23.18
2017-04-29T05:25:22.094Z,23.21
2017-04-29T05:26:24.426Z,23.17
2017-04-29T05:27:26.751Z,23.18
2017-04-29T05:28:29.078Z,23.17
2017-04-29T05:29:31.398Z,23.17
2017-04-29T05:30:34.313Z,23.24
2017-04-29T05:31:36.628Z,23.23
2017-04-29T05:32:38.955Z,23.18
2017-04-29T05:33:41.264Z,23.28
2017-04-29T05:34:43.587Z,23.23
2017-04-29T05:36:50.942Z,23.20
2017-04-29T05:37:53.268Z,23.21
2017-04-29T05:38:55.607Z,23.17
2017-04-29T05:39:57.921Z,23.17
2017-04-29T05:41:00.227Z,23.20
2017-04-29T05:42:03.293Z,23.12
2017-04-29T05:43:05.629Z,23.20
2017-04-29T05:44:07.946Z,23.17
2017-04-29T05:45:10.280Z,23.21
2017-04-29T05:46:12.599Z,23.09
2017-04-29T05:47:15.524Z,23.12
2017-04-29T05:48:17.840Z,23.12
2017-04-29T05:49:20.159Z,23.12
2017-04-29T05:50:22.486Z,23.12
2017-04-29T05:51:24.808Z,23.06
2017-04-29T05:52:27.723Z,23.09
2017-04-29T05:53:30.044Z,23.06
2017-04-29T05:54:32.367Z,23.09
2017-04-29T05:55:34.682Z,23.06
2017-04-29T05:56:37.012Z,23.09
2017-04-29T05:57:39.923Z,23.09
2017-04-29T05:58:42.256Z,23.06
2017-04-29T05:59:44.583Z,23.10
2017-04-29T06:00:46.900Z,23.05
2017-04-29T06:01:49.246Z,23.03
2017-04-29T06:02:52.167Z,23.05
2017-04-29T06:03:54.494Z,23.03
2017-04-29T06:04:56.803Z,23.03
2017-04-29T06:05:59.144Z,23.08
2017-04-29T06:07:01.473Z,23.06
2017-04-29T06:08:04.392Z,23.08
2017-04-29T06:09:06.713Z,23.02
2017-04-29T06:10:09.033Z,23.08
2017-04-29T06:11:11.350Z,23.09
2017-04-29T06:12:13.683Z,23.05
2017-04-29T06:13:16.609Z,23.08
2017-04-29T06:14:18.931Z,23.03
2017-04-29T06:15:21.244Z,23.05
2017-04-29T06:16:23.564Z,23.08
2017-04-29T06:17:25.886Z,23.06
2017-04-29T06:18:28.803Z,23.03
2017-04-29T06:19:31.124Z,23.08
2017-04-29T06:20:33.456Z,23.06
2017-04-29T06:21:35.778Z,23.12
2017-04-29T06:22:38.102Z,23.12
2017-04-29T06:23:40.969Z,23.13
2017-04-29T06:24:43.296Z,23.13
2017-04-29T06:25:45.616Z,23.09
2017-04-29T06:26:47.939Z,23.09
2017-04-29T06:27:50.260Z,23.06
2017-04-29T06:28:53.187Z,23.09
2017-04-29T06:29:55.503Z,23.12
2017-04-29T06:30:57.828Z,23.08
2017-04-29T06:32:00.142Z,23.10
2017-04-29T06:33:02.471Z,23.09
2017-04-29T06:34:05.352Z,23.08
2017-04-29T06:35:07.666Z,23.00
2017-04-29T06:36:09.985Z,22.98
2017-04-29T06:37:12.304Z,23.03
2017-04-29T06:38:14.634Z,23.08
2017-04-29T06:39:17.557Z,23.02
2017-04-29T06:40:19.873Z,23.05
2017-04-29T06:41:22.197Z,23.06
2017-04-29T06:42:24.515Z,23.08
2017-04-29T06:43:26.838Z,23.17
2017-04-29T06:44:29.771Z,23.02
2017-04-29T06:45:32.079Z,22.99
2017-04-29T06:46:34.394Z,23.06
2017-04-29T06:47:36.718Z,23.02
2017-04-29T06:48:39.035Z,23.05
2017-04-29T06:49:41.965Z,23.10
2017-04-29T06:50:44.288Z,23.10
2017-04-29T06:51:46.614Z,22.96
2017-04-29T06:52:48.940Z,23.00
2017-04-29T06:53:51.252Z,22.94
2017-04-29T06:54:54.174Z,23.02
2017-04-29T06:55:56.497Z,22.98
2017-04-29T06:56:58.820Z,23.02
2017-04-29T06:58:01.134Z,23.06
2017-04-29T06:59:03.467Z,23.06
2017-04-29T07:00:06.397Z,22.99
2017-04-29T07:01:08.719Z,23.05
2017-04-29T07:02:11.038Z,23.08
2017-04-29T07:03:13.356Z,23.15
2017-04-29T07:04:15.687Z,22.98
2017-04-29T07:05:18.626Z,22.93
2017-04-29T07:06:20.921Z,22.96
2017-04-29T07:07:23.250Z,22.98
2017-04-29T07:08:25.571Z,22.98
2017-04-29T07:09:27.893Z,22.99
2017-04-29T07:10:30.812Z,22.93
2017-04-29T07:11:33.127Z,23.02
2017-04-29T07:12:35.452Z,23.00
2017-04-29T07:13:37.772Z,23.02
2017-04-29T07:14:40.094Z,22.96
2017-04-29T07:15:43.011Z,22.93
2017-04-29T07:16:45.337Z,22.96
2017-04-29T07:17:47.699Z,22.90
2017-04-29T07:18:49.975Z,22.98
2017-04-29T07:19:52.296Z,22.94
2017-04-29T07:20:55.217Z,22.93
2017-04-29T07:21:57.534Z,22.93
2017-04-29T07:22:59.859Z,22.94
2017-04-29T07:24:02.176Z,23.02
2017-04-29T07:25:04.491Z,22.99
2017-04-29T07:26:07.423Z,22.98
2017-04-29T07:27:09.742Z,23.05
2017-04-29T07:28:12.075Z,23.00
2017-04-29T07:29:14.400Z,22.98
2017-04-29T07:30:16.731Z,22.96
2017-04-29T07:31:19.648Z,22.96
2017-04-29T07:32:21.969Z,22.98
2017-04-29T07:33:24.289Z,22.99
2017-04-29T07:34:26.610Z,23.03
2017-04-29T07:35:28.943Z,22.96
2017-04-29T07:36:31.857Z,23.00
2017-04-29T07:37:34.180Z,22.98
2017-04-29T07:38:36.510Z,23.02
2017-04-29T07:39:38.838Z,22.99
2017-04-29T07:40:41.158Z,23.10
2017-04-29T07:41:44.072Z,22.99
2017-04-29T07:42:46.387Z,23.05
2017-04-29T07:43:48.718Z,23.05
2017-04-29T07:44:51.053Z,22.98
2017-04-29T07:45:53.364Z,23.02
2017-04-29T07:46:56.276Z,22.94
2017-04-29T07:47:58.597Z,22.96
2017-04-29T07:49:00.915Z,23.02
2017-04-29T07:50:03.239Z,22.98
2017-04-29T07:51:05.556Z,22.94
2017-04-29T07:52:08.480Z,22.93
2017-04-29T07:53:10.810Z,22.91
2017-04-29T07:54:13.134Z,22.85
2017-04-29T07:55:15.474Z,22.88
2017-04-29T07:56:17.805Z,22.94
2017-04-29T07:57:20.719Z,22.91
2017-04-29T07:58:23.039Z,22.91
2017-04-29T07:59:25.360Z,22.94
2017-04-29T08:00:27.680Z,22.98
2017-04-29T08:01:30.014Z,22.87
2017-04-29T08:02:32.894Z,22.90
2017-04-29T08:03:35.219Z,22.81
2017-04-29T08:04:37.532Z,22.76
2017-04-29T08:05:39.856Z,22.76
2017-04-29T08:06:42.178Z,22.88
2017-04-29T08:07:45.044Z,22.93
2017-04-29T08:08:47.362Z,22.87
2017-04-29T08:09:49.671Z,22.87
2017-04-29T08:10:51.993Z,22.93
2017-04-29T08:11:54.321Z,22.85
2017-04-29T08:12:57.251Z,22.84
2017-04-29T08:13:59.577Z,22.91
2017-04-29T08:15:01.909Z,22.87
2017-04-29T08:16:04.223Z,22.88
2017-04-29T08:17:06.566Z,22.85
2017-04-29T08:18:09.445Z,22.88
2017-04-29T08:19:11.763Z,22.84
2017-04-29T08:20:14.095Z,22.84
2017-04-29T08:21:16.422Z,22.83
2017-04-29T08:22:18.743Z,22.87
2017-04-29T08:23:21.678Z,22.88
2017-04-29T08:24:24.006Z,22.81
2017-04-29T08:25:26.323Z,22.83
2017-04-29T08:26:28.635Z,22.76
2017-04-29T08:27:30.963Z,22.83
2017-04-29T08:28:33.882Z,22.84
2017-04-29T08:29:36.204Z,22.85
2017-04-29T08:30:38.525Z,22.87
2017-04-29T08:31:40.840Z,22.81
2017-04-29T08:32:43.164Z,22.83
2017-04-29T08:33:46.088Z,22.81
2017-04-29T08:34:48.413Z,22.85
2017-04-29T08:35:50.729Z,22.81
2017-04-29T08:36:53.054Z,22.83
2017-04-29T08:37:55.372Z,22.91
2017-04-29T08:38:58.292Z,22.83
2017-04-29T08:40:00.626Z,22.90
2017-04-29T08:41:02.953Z,22.85
2017-04-29T08:42:05.270Z,22.85
2017-04-29T08:43:07.598Z,22.83
2017-04-29T08:44:10.525Z,22.83
2017-04-29T08:45:12.846Z,22.85
2017-04-29T08:46:15.169Z,22.88
2017-04-29T08:47:17.497Z,22.84
2017-04-29T08:48:19.808Z,22.87
2017-04-29T08:49:22.680Z,22.78
2017-04-29T08:50:24.995Z,22.85
2017-04-29T08:51:27.317Z,22.84
2017-04-29T08:52:29.648Z,22.85
2017-04-29T08:53:31.969Z,22.84
2017-04-29T08:54:34.885Z,22.90
2017-04-29T08:55:37.213Z,22.91
2017-04-29T08:56:39.526Z,22.93
2017-04-29T08:57:41.859Z,22.85
2017-04-29T08:58:44.181Z,22.93
2017-04-29T08:59:47.094Z,22.90
2017-04-29T09:00:49.414Z,22.91
2017-04-29T09:01:51.736Z,22.88
2017-04-29T09:02:54.073Z,22.91
2017-04-29T09:03:56.394Z,22.93
2017-04-29T09:04:59.266Z,22.96
2017-04-29T09:06:01.577Z,23.00
2017-04-29T09:07:03.895Z,22.96
2017-04-29T09:08:06.213Z,22.90
2017-04-29T09:09:08.533Z,22.94
2017-04-29T09:10:11.458Z,22.96
2017-04-29T09:11:13.800Z,22.83
2017-04-29T09:12:16.104Z,22.84
2017-04-29T09:13:18.423Z,22.84
2017-04-29T09:14:20.753Z,22.83
2017-04-29T09:15:23.881Z,22.84
2017-04-29T09:16:26.213Z,22.84
2017-04-29T09:17:28.534Z,22.81
2017-04-29T09:18:30.851Z,22.80
2017-04-29T09:19:33.181Z,22.87
2017-04-29T09:20:36.053Z,22.85
2017-04-29T09:21:38.357Z,22.84
2017-04-29T09:22:40.681Z,22.83
2017-04-29T09:23:43.000Z,22.81
2017-04-29T09:24:45.321Z,22.81
2017-04-29T09:25:48.241Z,22.83
2017-04-29T09:26:50.556Z,22.80
2017-04-29T09:27:52.882Z,22.85
2017-04-29T09:28:55.202Z,22.84
2017-04-29T09:29:57.532Z,22.84
2017-04-29T09:31:00.459Z,22.80
2017-04-29T09:32:02.783Z,22.80
2017-04-29T09:33:05.100Z,22.83
2017-04-29T09:34:07.443Z,22.80
2017-04-29T09:35:09.760Z,22.83
2017-04-29T09:36:12.680Z,22.81
2017-04-29T09:37:15.018Z,22.83
2017-04-29T09:38:17.341Z,22.83
2017-04-29T09:39:19.653Z,22.78
2017-04-29T09:40:22.026Z,22.75
2017-04-29T09:41:24.984Z,22.83
2017-04-29T09:42:27.344Z,22.75
2017-04-29T09:43:29.711Z,22.75
2017-04-29T09:44:32.074Z,22.75
2017-04-29T09:45:34.427Z,22.76
2017-04-29T09:46:37.391Z,22.75
2017-04-29T09:47:39.746Z,22.78
2017-04-29T09:48:42.107Z,22.76
2017-04-29T09:49:44.464Z,22.76
2017-04-29T09:50:46.831Z,22.83
2017-04-29T09:51:49.779Z,22.78
2017-04-29T09:52:52.132Z,22.80
2017-04-29T09:53:54.488Z,22.83
2017-04-29T09:54:56.848Z,22.83
2017-04-29T09:55:59.207Z,22.78
2017-04-29T09:57:02.116Z,22.78
2017-04-29T09:58:04.481Z,22.78
2017-04-29T09:59:06.831Z,22.78
2017-04-29T10:00:09.197Z,22.81
2017-04-29T10:01:11.560Z,22.78
2017-04-29T10:03:23.346Z,22.80
2017-04-29T10:04:25.662Z,22.78
2017-04-29T10:05:27.984Z,22.81
2017-04-29T10:06:30.306Z,22.81
2017-04-29T10:07:33.217Z,22.78
2017-04-29T10:08:35.544Z,22.78
2017-04-29T10:09:37.859Z,22.75
2017-04-29T10:10:40.178Z,22.81
2017-04-29T10:11:42.503Z,22.80
2017-04-29T10:12:45.373Z,22.80
2017-04-29T10:13:47.706Z,22.78
2017-04-29T10:14:50.021Z,22.80
2017-04-29T10:15:52.351Z,22.78
2017-04-29T10:16:54.662Z,22.75
2017-04-29T10:17:57.586Z,22.81
2017-04-29T10:18:59.903Z,22.73
2017-04-29T10:20:02.221Z,22.78
2017-04-29T10:21:04.545Z,22.83
2017-04-29T10:22:06.873Z,22.83
2017-04-29T10:23:09.807Z,22.83
2017-04-29T10:24:12.127Z,22.75
2017-04-29T10:25:14.444Z,22.75
2017-04-29T10:26:16.778Z,22.73
2017-04-29T10:27:19.098Z,22.75
2017-04-29T10:28:22.011Z,22.72
2017-04-29T10:29:24.341Z,22.78
2017-04-29T10:30:26.661Z,22.80
2017-04-29T10:31:28.969Z,22.78
2017-04-29T10:32:31.289Z,22.85
2017-04-29T10:33:34.219Z,22.83
2017-04-29T10:34:36.544Z,22.90
2017-04-29T10:35:38.865Z,22.84
2017-04-29T10:36:41.190Z,22.85
2017-04-29T10:37:43.517Z,22.81
2017-04-29T10:38:46.443Z,22.83
2017-04-29T10:39:48.758Z,22.81
2017-04-29T10:40:51.070Z,22.75
2017-04-29T10:41:53.397Z,22.75
2017-04-29T10:42:55.713Z,22.78
2017-04-29T10:43:58.639Z,22.69
2017-04-29T10:45:00.954Z,22.76
2017-04-29T10:46:03.283Z,22.73
2017-04-29T10:47:05.606Z,22.73
2017-04-29T10:48:07.926Z,22.72
2017-04-29T10:49:10.848Z,22.63
2017-04-29T10:50:13.168Z,22.65
2017-04-29T10:51:15.476Z,22.68
2017-04-29T10:52:17.806Z,22.69
2017-04-29T10:53:20.120Z,22.72
2017-04-29T10:54:23.058Z,22.70
2017-04-29T10:55:25.371Z,22.70
2017-04-29T10:56:27.692Z,22.66
2017-04-29T10:57:30.020Z,22.73
2017-04-29T10:58:32.345Z,22.72
2017-04-29T10:59:35.263Z,22.72
2017-04-29T11:00:37.579Z,22.68
2017-04-29T11:01:39.908Z,22.72
2017-04-29T11:02:42.225Z,22.70
2017-04-29T11:03:44.550Z,22.75
2017-04-29T11:04:47.414Z,22.69
2017-04-29T11:05:49.746Z,22.75
2017-04-29T11:06:52.068Z,22.80
2017-04-29T11:07:54.383Z,22.69
2017-04-29T11:08:56.695Z,22.70
2017-04-29T11:09:59.630Z,22.78
2017-04-29T11:11:01.944Z,22.80
2017-04-29T11:12:04.261Z,22.78
2017-04-29T11:13:06.585Z,22.81
2017-04-29T11:14:08.905Z,22.80
2017-04-29T11:15:11.839Z,22.83
2017-04-29T11:16:14.164Z,22.80
2017-04-29T11:17:16.485Z,22.80
2017-04-29T11:18:18.812Z,22.84
2017-04-29T11:19:21.150Z,22.84
2017-04-29T11:20:24.067Z,22.83
2017-04-29T11:21:26.384Z,22.83
2017-04-29T11:22:28.701Z,22.88
2017-04-29T11:23:31.022Z,22.83
2017-04-29T11:24:33.344Z,22.83
2017-04-29T11:25:36.255Z,22.83
2017-04-29T11:26:38.574Z,22.83
2017-04-29T11:27:40.899Z,22.84
2017-04-29T11:28:43.235Z,22.84
2017-04-29T11:29:45.541Z,22.83
2017-04-29T11:30:48.463Z,22.80
2017-04-29T11:31:50.792Z,22.81
2017-04-29T11:32:53.112Z,22.83
2017-04-29T11:33:55.429Z,22.85
2017-04-29T11:34:57.760Z,22.87
2017-04-29T11:36:00.679Z,22.84
2017-04-29T11:37:03.003Z,22.83
2017-04-29T11:38:05.319Z,22.84
2017-04-29T11:39:07.654Z,22.83
2017-04-29T11:40:09.979Z,22.81
2017-04-29T11:41:12.899Z,22.87
2017-04-29T11:42:15.216Z,22.90
2017-04-29T11:43:17.550Z,22.90
2017-04-29T11:44:19.873Z,22.93
2017-04-29T11:45:22.200Z,22.85
2017-04-29T11:46:25.116Z,22.84
2017-04-29T11:47:27.430Z,22.94
2017-04-29T11:48:29.749Z,22.80
2017-04-29T11:49:32.080Z,22.94
2017-04-29T11:50:34.401Z,22.76
2017-04-29T11:51:37.321Z,22.83
2017-04-29T11:52:39.651Z,22.84
2017-04-29T11:53:41.980Z,22.85
2017-04-29T11:54:44.309Z,22.83
2017-04-29T11:55:46.632Z,22.84
2017-04-29T11:56:49.596Z,22.80
2017-04-29T11:57:51.917Z,22.84
2017-04-29T11:58:54.248Z,22.83
2017-04-29T11:59:56.573Z,22.87
2017-04-29T12:00:58.907Z,22.83
2017-04-29T12:02:01.830Z,22.81
2017-04-29T12:03:04.157Z,22.83
2017-04-29T12:04:06.481Z,22.90
2017-04-29T12:05:08.803Z,22.81
2017-04-29T12:06:11.132Z,22.88
2017-04-29T12:07:14.063Z,22.85
2017-04-29T12:08:16.384Z,22.90
2017-04-29T12:09:18.708Z,22.91
2017-04-29T12:10:21.036Z,22.93
2017-04-29T12:11:23.357Z,23.06
2017-04-29T12:12:26.293Z,23.03
2017-04-29T12:13:28.616Z,23.02
2017-04-29T12:14:30.949Z,23.03
2017-04-29T12:15:33.283Z,22.96
2017-04-29T12:16:35.615Z,22.96
2017-04-29T12:17:38.562Z,23.10
2017-04-29T12:18:40.891Z,23.00
2017-04-29T12:19:43.215Z,23.03
2017-04-29T12:20:45.559Z,22.98
2017-04-29T12:21:47.875Z,23.03
2017-04-29T12:22:50.816Z,23.00
2017-04-29T12:23:53.145Z,22.99
2017-04-29T12:24:55.467Z,22.98
2017-04-29T12:25:57.794Z,23.06
2017-04-29T12:27:00.117Z,22.96
2017-04-29T12:28:03.060Z,23.08
2017-04-29T12:29:05.386Z,23.06
2017-04-29T12:30:07.712Z,23.05
2017-04-29T12:31:10.032Z,23.09
2017-04-29T12:32:12.364Z,23.05
2017-04-29T12:33:15.294Z,23.09
2017-04-29T12:34:17.615Z,23.17
2017-04-29T12:35:19.942Z,23.21
2017-04-29T12:36:22.284Z,23.15
2017-04-29T12:37:24.610Z,23.23
2017-04-29T12:38:27.533Z,23.21
2017-04-29T12:39:29.862Z,23.25
2017-04-29T12:40:32.190Z,23.24
2017-04-29T12:41:34.525Z,23.32
2017-04-29T12:42:36.849Z,23.24
2017-04-29T12:43:39.771Z,23.28
2017-04-29T12:44:42.111Z,23.31
2017-04-29T12:45:44.431Z,23.34
2017-04-29T12:46:46.761Z,23.37
2017-04-29T12:47:49.084Z,23.40
2017-04-29T12:48:52.021Z,23.34
2017-04-29T12:49:54.357Z,23.41
2017-04-29T12:50:56.675Z,23.39
2017-04-29T12:51:59.000Z,23.41
2017-04-29T12:53:01.321Z,23.48
2017-04-29T12:54:04.258Z,23.44
2017-04-29T12:55:06.587Z,23.44
2017-04-29T12:56:08.910Z,23.43
2017-04-29T12:57:11.239Z,23.55
2017-04-29T12:58:13.569Z,23.48
2017-04-29T12:59:16.445Z,23.58
2017-04-29T13:00:18.769Z,23.56
2017-04-29T13:01:21.091Z,23.63
2017-04-29T13:02:23.414Z,23.66
2017-04-29T13:03:25.746Z,23.74
2017-04-29T13:04:28.666Z,23.86
2017-04-29T13:05:31.002Z,23.81
2017-04-29T13:06:33.337Z,23.74
2017-04-29T13:07:35.669Z,23.80
2017-04-29T13:08:38.001Z,23.88
2017-04-29T13:09:40.930Z,23.91
2017-04-29T13:10:43.257Z,23.96
2017-04-29T13:11:45.588Z,23.99
2017-04-29T13:12:47.926Z,24.01
2017-04-29T13:13:50.246Z,24.05
2017-04-29T13:14:53.176Z,24.20
2017-04-29T13:15:55.517Z,24.17
2017-04-29T13:16:57.844Z,24.11
2017-04-29T13:18:00.170Z,24.03
2017-04-29T13:19:02.497Z,24.03
2017-04-29T13:20:05.431Z,24.05
2017-04-29T13:21:07.776Z,24.17
2017-04-29T13:22:10.094Z,24.20
2017-04-29T13:23:12.417Z,24.24
2017-04-29T13:24:14.748Z,24.24
2017-04-29T13:25:17.682Z,24.20
2017-04-29T13:26:20.007Z,24.18
2017-04-29T13:27:22.335Z,24.26
2017-04-29T13:28:24.671Z,24.36
2017-04-29T13:29:26.995Z,24.47